Air Navigation Services of Czech Republic  
Last data update:  28.01.2021 01:01:27 UTC česká verze
   METEO Page displayed:  28.01.2021 01:02:20 UTC  
help
METAR EDDB 280050Z 20010KT 6000 -DZ BKN007 BKN013 01/00 Q1007 TEMPO 4000 BKN004=
METAR EDDC 280050Z 22008KT 9999 OVC016 01/M00 Q1008 R04/19//95=
METAR EDDE 280050Z 23012KT 9999 FEW016 SCT030 02/M00 Q1009 R88/990494=
METAR EDDF 280050Z 19006KT 160V220 9000 SCT004 OVC009 02/02 Q1012 R25L/290095 R25C/290095 R18/290095 NOSIG=
METAR EDDM 280050Z 26009KT 9999 SCT010 BKN044 01/M00 Q1013 TEMPO BKN010=
METAR EDDN 280050Z 23005KT 9999 -SNRA BKN006 01/00 Q1012 R28/29//95=
METAR EDDP 280050Z 23010KT 9999 FEW015 BKN028 02/01 Q1008 TEMPO BKN012=
METAR EDQM NIL
METAR EPBY 280030Z 19005KT 9999 FEW030 BKN035 00/M02 Q1009=
METAR EPGD 280030Z 20007KT CAVOK M02/M03 Q1007 R11/190095=
METAR EPKK 280030Z 18003KT 6000 FEW015 BKN025 M03/M05 Q1012 R25/29//95=
METAR EPKT 280030Z VRB01KT 6000 BKN033 M04/M05 Q1011 R99/2///94=
METAR EPLL 280030Z 22003KT 9999 BKN032 M01/M05 Q1010=
METAR EPPO 280030Z 18006KT 7000 NSC M02/M03 Q1009=
METAR EPRZ 280030Z 28009KT 9999 OVC036 M02/M04 Q1011 R27/41//95=
METAR EPWA 280030Z 27005KT 9999 OVC030 M00/M02 Q1010 R33/2///95 NOSIG=
METAR EPWR 280030Z 17004KT CAVOK M02/M03 Q1011 R11/19//95=
METAR LHBP 280030Z AUTO 29005KT 9999 NCD M07/M09 Q1013 NOSIG=
METAR LHSM 280015Z AUTO 00000KT 6000 NSC M04/M04 Q1014=
METAR LKBC 280100Z AUTO 07003KT 9999 BKN024 OVC027 M04/M05 Q1011=
METAR LKCV 280100Z 14006KT 9999 -SN BKN046 M02/M04 Q1011 NOSIG RMK BLU BLU=
METAR LKKB 280100Z 20009KT 9999 FEW015 OVC040 M00/M03 Q1010 RMK BLU=
METAR LKKU NIL
METAR LKKV 280100Z 25008KT 220V280 9999 OVC006 M01/M01 Q1009 R29/////// RMK REG QNH 1006=
METAR LKLN 280100Z AUTO 22008KT 9999 -SN OVC016 00/M01 Q1011=
METAR LKMT 280100Z 23005KT CAVOK M06/M08 Q1012 NOSIG RMK REG QNH 1006=
METAR LKNA 280100Z 26004KT 7000 NSC M06/M07 Q1011 RMK WHT=
METAR COR LKPD 280100Z 11002KT 9999 BKN025 BKN070 M03/M04 Q1011 RMK BLACK=
METAR LKPJ 280100Z AUTO VRB01KT 3400 BR NCD M04/M05 Q1012=
METAR LKPR 280100Z 22013KT 9999 -SN FEW018 BKN033 BKN048 M00/M02 Q1010 R24/590195 R30/490195 NOSIG RMK REG QNH 1006=
METAR LKTB 280100Z VRB02KT CAVOK M03/M04 Q1012 NOSIG RMK REG QNH 1006=
METAR LKVO NIL
METAR LOWI 280050Z AUTO 26002KT 4900 BR FEW005 M06/M06 Q1015=
METAR LOWL 280050Z AUTO VRB02KT 9000 FEW010 BKN015 M00/M01 Q1014=
METAR LOWS 280050Z AUTO 16007KT 3500 -SN FEW003 BKN012 M01/M01 Q1014=
METAR LOWW 280050Z 26002KT 9999 FEW038 BKN050 M01/M05 Q1013 TEMPO -SN=
METAR LZIB 280100Z 27004KT 9999 FEW049 M01/M04 Q1014 R13/CLRD//=
METAR LZKZ 280100Z 28009KT CAVOK M04/M07 Q1012=
METAR LZMC 280000Z AUTO 12001KT 5000 R19/1500 ////// M05/M06 Q1014=
METAR LZPP 280030Z AUTO 15002KT 9999 NCD M04/M05 Q1013=
METAR LZSL 280000Z AUTO VRB01KT 9999 // NCD M06/M08 Q1012=
METAR LZTT 280100Z 29004KT CAVOK M16/M18 Q1009=
METAR LZZI 280030Z VRB02KT 9999 SCT035 M06/M07 Q1012=